Time;durP1;ratioP1;P1;durP2;ratioP2;P2;SDS_P1;SDS_P2;PMS_P1;PMS_P2;Temp;Humidity;BMP_temperature;BMP_pressure;BME280_temperature;BME280_humidity;BME280_pressure;Samples;Min_cycle;Max_cycle;Signal;HPM_P1;HPM_P2
2023/09/06 00:01:11;;;;;;;4.35;1.73;;;;;;;19.59;88.86;101630.19;4947005;28;20416;-69
2023/09/06 00:03:37;;;;;;;3.65;2.13;;;;;;;19.57;89.00;101630.41;4965151;28;20078;-68
2023/09/06 00:06:04;;;;;;;4.15;1.70;;;;;;;19.55;88.94;101635.06;4945126;28;20055;-69
2023/09/06 00:08:33;;;;;;;6.07;2.20;;;;;;;19.52;89.00;101635.44;4968119;28;20030;-69
2023/09/06 00:11:04;;;;;;;4.28;2.13;;;;;;;19.47;89.46;101637.84;4967057;28;20082;-69
2023/09/06 00:13:31;;;;;;;3.63;2.28;;;;;;;19.41;89.70;101639.44;4963425;28;20034;-69
2023/09/06 00:15:57;;;;;;;9.32;2.70;;;;;;;19.38;89.86;101641.63;4960258;28;20097;-69
2023/09/06 00:18:23;;;;;;;3.53;2.20;;;;;;;19.33;89.89;101638.78;4964289;28;20035;-68
2023/09/06 00:20:48;;;;;;;3.28;2.15;;;;;;;19.26;89.99;101633.47;4963108;28;20042;-69
2023/09/06 00:23:14;;;;;;;2.55;1.85;;;;;;;19.16;89.83;101641.72;4960726;28;20034;-68
2023/09/06 00:25:40;;;;;;;2.97;2.08;;;;;;;19.10;89.85;101637.25;4947822;28;20035;-69
2023/09/06 00:28:07;;;;;;;9.68;2.38;;;;;;;19.00;90.15;101634.91;4947625;28;20099;-68
2023/09/06 00:30:33;;;;;;;4.90;2.30;;;;;;;18.93;90.41;101634.09;4956444;28;20032;-70
2023/09/06 00:32:59;;;;;;;3.30;1.95;;;;;;;18.88;90.80;101638.28;4964832;28;20393;-68
2023/09/06 00:35:26;;;;;;;5.75;2.00;;;;;;;18.82;90.92;101642.50;4961074;28;20042;-68
2023/09/06 00:37:53;;;;;;;3.78;2.00;;;;;;;18.77;91.05;101632.50;4946696;28;20042;-69
2023/09/06 00:40:21;;;;;;;4.65;1.90;;;;;;;18.75;91.28;101639.75;4943864;28;20041;-68
2023/09/06 00:42:59;;;;;;;5.40;2.00;;;;;;;18.66;91.87;101646.94;4956938;28;20199;-68
2023/09/06 00:45:27;;;;;;;3.00;2.08;;;;;;;18.58;92.39;101643.66;4961862;28;20027;-69
2023/09/06 00:47:55;;;;;;;3.97;2.13;;;;;;;18.56;92.64;101648.28;4948461;28;20038;-68
2023/09/06 00:50:21;;;;;;;3.00;2.05;;;;;;;18.56;92.76;101648.28;4962911;28;20513;-68
2023/09/06 00:52:49;;;;;;;3.42;2.05;;;;;;;18.56;92.71;101643.84;4963673;28;20572;-67
2023/09/06 00:55:14;;;;;;;4.75;2.10;;;;;;;18.55;92.41;101642.22;4960360;28;20030;-69
2023/09/06 00:57:41;;;;;;;4.90;2.30;;;;;;;18.54;92.27;101647.69;4965650;28;20050;-69
2023/09/06 01:00:14;;;;;;;7.18;2.58;;;;;;;18.54;92.02;101645.03;4967970;28;20402;-69
2023/09/06 01:02:39;;;;;;;4.22;2.20;;;;;;;18.52;92.12;101647.84;4968962;28;20145;-68
2023/09/06 01:05:05;;;;;;;5.65;2.08;;;;;;;18.49;92.16;101638.53;4971157;28;20034;-69
2023/09/06 01:07:34;;;;;;;2.17;1.63;;;;;;;18.46;92.48;101643.38;4950818;28;20138;-69
2023/09/06 01:10:03;;;;;;;5.40;2.05;;;;;;;18.45;92.64;101631.22;4971346;28;20031;-69
2023/09/06 01:12:29;;;;;;;3.97;2.40;;;;;;;18.42;92.93;101642.09;4963949;28;20112;-69
2023/09/06 01:14:55;;;;;;;3.75;1.80;;;;;;;18.39;93.06;101634.59;4971460;28;20071;-69
2023/09/06 01:17:24;;;;;;;3.42;1.90;;;;;;;18.34;92.99;101635.16;4953117;28;20058;-69
2023/09/06 01:19:57;;;;;;;3.05;2.00;;;;;;;18.32;93.28;101636.34;4968666;28;20049;-68
2023/09/06 01:22:34;;;;;;;3.78;2.42;;;;;;;18.31;93.29;101640.78;4965687;28;20067;-69
2023/09/06 01:25:00;;;;;;;3.28;2.17;;;;;;;18.25;93.54;101636.25;4962422;28;20035;-69
2023/09/06 01:27:26;;;;;;;4.03;2.30;;;;;;;18.21;94.20;101627.16;4965536;28;20552;-69
2023/09/06 01:29:51;;;;;;;2.83;1.88;;;;;;;18.15;94.62;101626.06;4966012;28;20152;-69
2023/09/06 01:32:17;;;;;;;3.58;2.20;;;;;;;18.13;94.92;101630.69;4949382;28;20121;-68
2023/09/06 01:34:42;;;;;;;4.40;2.45;;;;;;;18.07;94.94;101623.59;4954783;28;20035;-69
2023/09/06 01:37:08;;;;;;;7.43;2.67;;;;;;;18.02;94.68;101629.38;4966098;28;20089;-69
2023/09/06 01:39:33;;;;;;;4.13;2.55;;;;;;;17.95;95.06;101631.13;4969681;28;20034;-68
2023/09/06 01:41:59;;;;;;;3.45;2.25;;;;;;;17.89;95.25;101629.22;4961695;28;20529;-68
2023/09/06 01:44:26;;;;;;;5.20;2.95;;;;;;;17.85;95.34;101630.59;4965654;28;20027;-69
2023/09/06 01:46:52;;;;;;;6.38;2.65;;;;;;;17.77;95.49;101631.47;4950799;28;20054;-69
2023/09/06 01:49:18;;;;;;;5.00;2.20;;;;;;;17.73;95.57;101634.66;4947811;28;20041;-69
2023/09/06 01:51:43;;;;;;;6.38;2.38;;;;;;;17.69;95.59;101640.25;4966498;28;20050;-69
2023/09/06 01:54:11;;;;;;;3.83;2.72;;;;;;;17.64;95.89;101636.56;4949436;28;20039;-68
2023/09/06 01:56:36;;;;;;;5.50;2.17;;;;;;;17.60;95.87;101633.50;4950798;28;20984;-69
2023/09/06 01:59:03;;;;;;;3.03;1.83;;;;;;;17.58;95.86;101624.19;4952008;28;20168;-69
2023/09/06 02:01:28;;;;;;;5.40;2.47;;;;;;;17.59;95.65;101631.03;4961125;28;20026;-69
2023/09/06 02:03:54;;;;;;;3.72;2.30;;;;;;;17.64;95.35;101641.81;4966901;28;20512;-69
2023/09/06 02:06:19;;;;;;;3.55;2.15;;;;;;;17.60;95.08;101633.50;4953447;28;20057;-69
2023/09/06 02:08:45;;;;;;;5.05;2.22;;;;;;;17.61;95.04;101636.91;4965961;28;20030;-69
2023/09/06 02:11:10;;;;;;;5.10;2.38;;;;;;;17.60;95.39;101637.94;4950035;28;20437;-69
2023/09/06 02:13:36;;;;;;;3.70;2.38;;;;;;;17.60;94.91;101638.72;4967473;28;20043;-69
2023/09/06 02:16:04;;;;;;;4.47;2.97;;;;;;;17.66;94.60;101638.00;4952185;28;20038;-69
2023/09/06 02:18:30;;;;;;;6.38;2.60;;;;;;;17.57;95.05;101638.28;4967978;28;20105;-68
2023/09/06 02:20:56;;;;;;;7.45;3.03;;;;;;;17.69;94.27;101635.03;4935683;28;20489;-69
2023/09/06 02:23:22;;;;;;;5.05;2.58;;;;;;;17.81;93.73;101635.34;4954751;28;20034;-70
2023/09/06 02:25:47;;;;;;;5.25;2.75;;;;;;;17.81;93.31;101635.34;4966336;28;20043;-69
2023/09/06 02:28:14;;;;;;;6.97;2.45;;;;;;;17.85;93.14;101635.84;4958642;28;20034;-69
2023/09/06 02:30:41;;;;;;;4.50;2.45;;;;;;;17.83;93.00;101632.56;4946509;28;20041;-69
2023/09/06 02:33:10;;;;;;;3.38;2.38;;;;;;;17.79;93.18;101629.47;4968675;28;20531;-69
2023/09/06 02:35:40;;;;;;;5.60;2.60;;;;;;;17.83;92.99;101629.94;4962163;28;20074;-69
2023/09/06 02:38:14;;;;;;;4.05;2.50;;;;;;;17.73;93.46;101630.22;4966639;28;20053;-69
2023/09/06 02:40:43;;;;;;;4.00;2.65;;;;;;;17.78;93.28;101621.78;4959187;28;20088;-69
2023/09/06 02:43:10;;;;;;;4.20;2.83;;;;;;;17.69;93.36;101623.72;4964569;28;20030;-70
2023/09/06 02:45:36;;;;;;;8.95;2.72;;;;;;;17.69;93.89;101626.34;4968030;28;20121;-69
2023/09/06 02:48:13;;;;;;;5.88;2.90;;;;;;;17.68;93.48;101625.50;4951749;28;20058;-69
2023/09/06 02:50:40;;;;;;;4.15;2.58;;;;;;;17.69;93.67;101621.09;4965314;28;20023;-69
2023/09/06 02:53:15;;;;;;;2.85;2.30;;;;;;;17.59;93.85;101621.34;4951208;28;20031;-70
2023/09/06 02:55:41;;;;;;;7.40;2.70;;;;;;;17.51;94.51;101624.91;4948633;28;20026;-70
2023/09/06 02:58:07;;;;;;;6.93;3.20;;;;;;;17.48;94.61;101624.47;4947884;28;20026;-70
2023/09/06 03:00:35;;;;;;;4.78;3.33;;;;;;;17.50;94.55;101622.47;4963102;28;20038;-70
2023/09/06 03:03:07;;;;;;;4.85;2.58;;;;;;;17.48;94.68;101622.66;4965444;28;20046;-69
2023/09/06 03:05:41;;;;;;;5.60;3.28;;;;;;;17.41;95.07;101629.63;4950656;28;20030;-69
2023/09/06 03:08:08;;;;;;;8.77;2.75;;;;;;;17.47;94.42;101633.31;4933418;28;20417;-69
2023/09/06 03:10:35;;;;;;;4.72;2.97;;;;;;;17.44;94.64;101631.88;4966576;28;20162;-70
2023/09/06 03:13:01;;;;;;;6.75;3.00;;;;;;;17.38;95.08;101629.97;4951434;28;20413;-69
2023/09/06 03:15:31;;;;;;;6.22;2.72;;;;;;;17.36;95.41;101625.91;4950416;28;20030;-69
2023/09/06 03:18:02;;;;;;;4.40;2.80;;;;;;;17.26;95.50;101624.38;4964807;28;20121;-69
2023/09/06 03:20:33;;;;;;;8.05;2.83;;;;;;;17.16;96.40;101623.00;4964915;28;20035;-69
2023/09/06 03:23:16;;;;;;;3.30;2.38;;;;;;;17.09;96.90;101630.78;4949467;28;20122;-69
2023/09/06 03:25:47;;;;;;;4.63;2.97;;;;;;;17.10;96.76;101630.59;4930762;28;20441;-69
2023/09/06 03:28:14;;;;;;;6.32;3.17;;;;;;;17.18;96.37;101627.09;4964367;28;20027;-69
2023/09/06 03:30:41;;;;;;;6.10;2.67;;;;;;;17.04;97.06;101631.28;4946567;28;20034;-69
2023/09/06 03:33:07;;;;;;;4.55;2.70;;;;;;;16.98;97.55;101629.41;4990908;23;20037;-69
2023/09/06 03:35:33;;;;;;;7.68;3.20;;;;;;;16.94;97.49;101633.38;4960360;28;20099;-70
2023/09/06 03:37:59;;;;;;;4.00;2.53;;;;;;;16.93;98.08;101634.34;4966068;28;20042;-69
2023/09/06 03:40:25;;;;;;;5.68;2.22;;;;;;;16.95;97.68;101637.59;4987313;28;20022;-69
2023/09/06 03:42:53;;;;;;;5.20;2.60;;;;;;;16.93;97.73;101642.19;4973849;28;20039;-68
2023/09/06 03:45:21;;;;;;;4.75;2.45;;;;;;;16.93;98.08;101642.19;4964239;28;20031;-69
2023/09/06 03:47:48;;;;;;;5.72;2.58;;;;;;;16.89;98.53;101649.59;4959045;28;20051;-69
2023/09/06 03:50:15;;;;;;;4.50;2.65;;;;;;;16.85;99.08;101652.75;4961904;28;20037;-69
2023/09/06 03:52:43;;;;;;;8.73;2.50;;;;;;;16.82;99.55;101651.31;4958363;28;20137;-69
2023/09/06 03:55:10;;;;;;;3.28;2.10;;;;;;;16.82;99.79;101656.56;4961855;28;20043;-69
2023/09/06 03:57:37;;;;;;;5.63;2.60;;;;;;;16.80;100.00;101653.28;4959840;28;20034;-69
2023/09/06 04:00:26;;;;;;;7.18;2.75;;;;;;;16.81;100.00;101651.47;4960278;28;20665;-69
2023/09/06 04:03:03;;;;;;;4.65;2.50;;;;;;;16.81;100.00;101652.25;4963946;28;20129;-69
2023/09/06 04:05:29;;;;;;;5.38;2.40;;;;;;;16.81;100.00;101647.03;4964006;28;20560;-69
2023/09/06 04:07:57;;;;;;;5.78;2.65;;;;;;;16.79;99.54;101646.38;4950348;28;20046;-69
2023/09/06 04:10:36;;;;;;;5.30;2.45;;;;;;;16.73;99.91;101652.34;4964993;28;20038;-69
2023/09/06 04:13:07;;;;;;;3.40;2.50;;;;;;;16.68;100.00;101654.66;4961113;28;20093;-69
2023/09/06 04:15:40;;;;;;;7.00;2.40;;;;;;;16.67;100.00;101656.47;4962632;28;20062;-70
2023/09/06 04:18:09;;;;;;;3.45;2.33;;;;;;;16.65;100.00;101657.63;4959244;28;20074;-69
2023/09/06 04:20:36;;;;;;;5.18;2.47;;;;;;;16.61;100.00;101665.00;4963592;28;20038;-70
2023/09/06 04:23:06;;;;;;;4.82;2.65;;;;;;;16.61;100.00;101666.81;4962958;28;20434;-69
2023/09/06 04:25:44;;;;;;;3.83;2.70;;;;;;;16.56;100.00;101667.34;4961962;28;20035;-69
2023/09/06 04:28:16;;;;;;;5.63;2.50;;;;;;;16.50;100.00;101663.63;4963011;28;20078;-69
2023/09/06 04:30:46;;;;;;;4.80;2.38;;;;;;;16.43;100.00;101667.94;4959919;28;20045;-70
2023/09/06 04:33:14;;;;;;;4.28;2.30;;;;;;;16.35;100.00;101673.22;4958339;28;20038;-69
2023/09/06 04:35:47;;;;;;;6.10;2.47;;;;;;;16.23;100.00;101677.19;4970186;28;20030;-69
2023/09/06 04:38:19;;;;;;;5.85;2.92;;;;;;;16.18;100.00;101677.72;4970304;28;20044;-69
2023/09/06 04:40:47;;;;;;;;;;;;;;;16.16;100.00;101679.69;4963574;28;20041;-69
2023/09/06 04:43:19;;;;;;;5.10;2.70;;;;;;;16.14;100.00;101679.03;4975479;28;20109;-69
2023/09/06 04:45:47;;;;;;;6.95;2.47;;;;;;;16.12;100.00;101689.69;4953515;28;20035;-68
2023/09/06 04:48:16;;;;;;;2.97;2.30;;;;;;;16.09;100.00;101687.41;4953055;28;20031;-69
2023/09/06 04:50:46;;;;;;;4.38;2.53;;;;;;;16.02;100.00;101683.03;4966938;28;20035;-69
2023/09/06 04:53:17;;;;;;;3.97;2.55;;;;;;;15.92;100.00;101681.44;4967788;28;20026;-69
2023/09/06 04:55:44;;;;;;;4.32;2.70;;;;;;;15.87;100.00;101678.50;4967526;28;20038;-69
2023/09/06 04:58:11;;;;;;;3.47;2.35;;;;;;;15.85;100.00;101695.34;4967370;28;20023;-69
2023/09/06 05:00:43;;;;;;;6.25;2.83;;;;;;;15.82;100.00;101691.25;4967065;28;20039;-69
2023/09/06 05:03:12;;;;;;;5.78;2.25;;;;;;;15.82;100.00;101691.25;4972720;28;20050;-69
2023/09/06 05:05:39;;;;;;;8.60;2.88;;;;;;;15.81;100.00;101694.88;4964292;28;20382;-69
2023/09/06 05:08:05;;;;;;;6.30;2.20;;;;;;;15.81;100.00;101694.88;4968144;28;20051;-69
2023/09/06 05:10:31;;;;;;;3.92;2.35;;;;;;;15.79;100.00;101701.28;4969816;28;20031;-69
2023/09/06 05:12:58;;;;;;;5.90;2.70;;;;;;;15.77;100.00;101704.84;4964676;28;20039;-69
2023/09/06 05:15:23;;;;;;;6.20;2.63;;;;;;;15.77;100.00;101699.63;4953672;28;20046;-69
2023/09/06 05:17:49;;;;;;;6.22;2.80;;;;;;;15.78;100.00;101703.06;4968372;28;20048;-69
2023/09/06 05:20:32;;;;;;;6.38;2.45;;;;;;;15.74;100.00;101699.16;4968878;28;20577;-69
2023/09/06 05:23:13;;;;;;;6.32;3.10;;;;;;;15.68;100.00;101705.84;4963862;28;20538;-69
2023/09/06 05:25:40;;;;;;;4.22;2.63;;;;;;;15.64;100.00;101707.16;4966260;28;20039;-70
2023/09/06 05:28:10;;;;;;;3.45;2.67;;;;;;;15.64;100.00;101704.53;4948627;28;20031;-70
2023/09/06 05:30:40;;;;;;;4.50;2.80;;;;;;;15.65;100.00;101711.41;4964451;28;20567;-70
2023/09/06 05:33:08;;;;;;;5.47;2.80;;;;;;;15.64;100.00;101707.16;4969041;28;20046;-69
2023/09/06 05:35:34;;;;;;;11.77;3.45;;;;;;;15.64;100.00;101717.59;4933799;28;20031;-69
2023/09/06 05:38:03;;;;;;;3.97;2.70;;;;;;;15.63;100.00;101713.34;4966488;28;20027;-69
2023/09/06 05:40:30;;;;;;;6.63;2.35;;;;;;;15.64;100.00;101704.53;4967173;28;20034;-68
2023/09/06 05:42:56;;;;;;;4.22;2.50;;;;;;;15.67;100.00;101704.22;4954883;28;20027;-69
2023/09/06 05:45:22;;;;;;;7.30;3.72;;;;;;;15.70;100.00;101716.94;4968312;28;20034;-68
2023/09/06 05:47:49;;;;;;;7.07;3.38;;;;;;;15.71;100.00;101708.13;4967122;28;20090;-69
2023/09/06 05:50:16;;;;;;;5.10;2.70;;;;;;;15.73;100.00;101714.03;4963638;28;20134;-69
2023/09/06 05:52:42;;;;;;;5.60;2.92;;;;;;;15.74;100.00;101713.03;4968731;28;20501;-69
2023/09/06 05:55:10;;;;;;;7.07;2.95;;;;;;;15.76;100.00;101715.47;4963957;28;20034;-69
2023/09/06 05:57:37;;;;;;;3.75;2.60;;;;;;;15.76;100.00;101713.69;4960402;28;20437;-69
2023/09/06 06:00:12;;;;;;;5.72;2.55;;;;;;;15.77;100.00;101717.94;4972315;28;20054;-69
2023/09/06 06:02:39;;;;;;;3.58;2.33;;;;;;;15.80;100.00;101708.13;4962608;28;20121;-69
2023/09/06 06:05:05;;;;;;;4.80;2.75;;;;;;;15.83;100.00;101713.81;4966518;28;20058;-69
2023/09/06 06:07:30;;;;;;;4.13;2.83;;;;;;;15.86;100.00;101712.66;4965398;28;20621;-69
2023/09/06 06:09:56;;;;;;;3.13;2.63;;;;;;;15.88;100.00;101711.53;4970427;28;20385;-69
2023/09/06 06:12:22;;;;;;;5.45;3.20;;;;;;;15.93;100.00;101709.22;4966749;28;20612;-69
2023/09/06 06:14:54;;;;;;;6.97;2.80;;;;;;;15.95;100.00;101712.50;4965242;28;20130;-69
2023/09/06 06:17:19;;;;;;;4.05;2.80;;;;;;;16.02;100.00;101722.28;4968726;28;20039;-69
2023/09/06 06:19:48;;;;;;;3.65;2.78;;;;;;;16.04;100.00;101721.09;4970843;28;20038;-68
2023/09/06 06:22:14;;;;;;;6.88;3.58;;;;;;;16.19;100.00;101723.81;4966388;28;20576;-69
2023/09/06 06:24:43;;;;;;;4.63;2.88;;;;;;;16.22;100.00;101726.13;4964736;28;20042;-69
2023/09/06 06:27:09;;;;;;;6.28;3.45;;;;;;;16.26;100.00;101722.16;4963871;28;20051;-69
2023/09/06 06:29:34;;;;;;;6.28;2.88;;;;;;;16.34;100.00;101718.69;4962755;28;20039;-69
2023/09/06 06:32:00;;;;;;;9.93;3.17;;;;;;;16.53;100.00;101714.81;4946299;28;20042;-69
2023/09/06 06:34:25;;;;;;;6.10;3.15;;;;;;;16.66;100.00;101709.00;4950554;28;20062;-69
2023/09/06 06:36:51;;;;;;;7.50;4.40;;;;;;;16.88;100.00;101712.66;4973126;28;21330;-69
2023/09/06 06:39:17;;;;;;;3.97;2.88;;;;;;;17.00;100.00;101713.84;4965132;28;20081;-69
2023/09/06 06:41:43;;;;;;;6.20;2.83;;;;;;;17.19;100.00;101716.97;4967366;28;20512;-69
2023/09/06 06:44:09;;;;;;;5.35;3.00;;;;;;;17.44;100.00;101714.94;4964406;28;20043;-69
2023/09/06 06:46:37;;;;;;;5.00;2.67;;;;;;;17.68;98.88;101717.31;4947182;28;20035;-69
2023/09/06 06:49:04;;;;;;;4.30;3.08;;;;;;;17.97;98.37;101718.34;4966368;28;20049;-69
2023/09/06 06:51:40;;;;;;;3.47;2.40;;;;;;;18.41;94.99;101722.69;4970079;28;20042;-68
2023/09/06 06:54:10;;;;;;;10.13;3.13;;;;;;;19.09;92.42;101724.97;4963747;28;20410;-68
2023/09/06 06:56:36;;;;;;;6.15;2.60;;;;;;;19.88;85.47;101723.88;4963739;28;20030;-68
2023/09/06 06:59:03;;;;;;;5.28;2.30;;;;;;;20.65;78.55;101721.13;4949991;28;20552;-68
2023/09/06 07:01:30;;;;;;;6.82;2.83;;;;;;;21.25;74.70;101727.22;4967279;28;20277;-68
2023/09/06 07:03:57;;;;;;;7.22;2.47;;;;;;;21.92;72.06;101725.22;4947788;28;20040;-69
2023/09/06 07:06:23;;;;;;;4.43;2.40;;;;;;;22.39;68.61;101721.59;4967538;28;20039;-69
2023/09/06 07:08:49;;;;;;;3.72;2.13;;;;;;;22.76;67.94;101713.84;4969621;28;20082;-69
2023/09/06 07:11:16;;;;;;;6.55;2.70;;;;;;;22.98;65.86;101719.53;4964150;28;20039;-69
2023/09/06 07:13:42;;;;;;;5.93;2.20;;;;;;;23.58;63.94;101719.78;4966657;28;20054;-69
2023/09/06 07:16:09;;;;;;;5.53;2.08;;;;;;;23.80;63.33;101720.19;4962165;28;20043;-67
2023/09/06 07:18:34;;;;;;;5.10;2.20;;;;;;;24.08;62.88;101724.94;4970255;28;20078;-67
2023/09/06 07:21:00;;;;;;;3.08;1.90;;;;;;;24.42;61.34;101722.63;4964417;28;20039;-67
2023/09/06 07:23:26;;;;;;;5.10;2.35;;;;;;;24.63;59.17;101731.13;4948889;28;20121;-67
2023/09/06 07:25:52;;;;;;;6.82;2.50;;;;;;;24.03;59.42;101732.72;4970973;28;20039;-67
2023/09/06 07:28:18;;;;;;;4.65;2.60;;;;;;;24.57;59.25;101724.09;4967981;28;20524;-67
2023/09/06 07:30:43;;;;;;;4.97;2.63;;;;;;;24.96;58.14;101725.31;4967165;28;20150;-67
2023/09/06 07:33:09;;;;;;;8.80;2.78;;;;;;;25.39;57.52;101729.47;4967420;28;20480;-67
2023/09/06 07:35:35;;;;;;;7.53;2.38;;;;;;;25.76;55.74;101728.34;4960956;28;20042;-67
2023/09/06 07:38:00;;;;;;;3.95;2.53;;;;;;;25.99;55.77;101724.84;4964800;28;20027;-67
2023/09/06 07:40:26;;;;;;;7.70;2.10;;;;;;;26.18;54.50;101717.47;4964946;28;20122;-66
2023/09/06 07:42:53;;;;;;;7.05;2.67;;;;;;;26.05;53.44;101731.88;4968572;28;20031;-67
2023/09/06 07:45:18;;;;;;;6.95;2.53;;;;;;;26.40;53.66;101722.91;4969870;28;20035;-67
2023/09/06 07:47:44;;;;;;;4.25;2.45;;;;;;;25.91;52.61;101725.19;4967753;28;20039;-67
2023/09/06 07:50:10;;;;;;;9.10;2.60;;;;;;;26.20;53.11;101729.50;4964284;28;20042;-67
2023/09/06 07:52:37;;;;;;;7.32;2.42;;;;;;;26.31;51.97;101732.31;4967967;28;20035;-67
2023/09/06 07:55:04;;;;;;;3.78;2.13;;;;;;;26.36;51.59;101727.91;4968051;28;20053;-67
2023/09/06 07:57:29;;;;;;;4.22;2.30;;;;;;;26.59;51.13;101734.13;4964587;28;20523;-67
2023/09/06 07:59:55;;;;;;;3.97;1.90;;;;;;;26.85;51.43;101726.59;4970043;28;20034;-67
2023/09/06 08:02:22;;;;;;;5.25;2.63;;;;;;;27.03;50.14;101723.69;4964512;28;20138;-67
2023/09/06 08:04:47;;;;;;;3.72;2.80;;;;;;;27.32;48.44;101732.34;4962476;28;20069;-67
2023/09/06 08:07:13;;;;;;;3.80;2.40;;;;;;;27.42;49.65;101725.56;4960578;28;20626;-67
2023/09/06 08:09:38;;;;;;;3.25;2.30;;;;;;;27.54;48.73;101736.91;4966532;28;20046;-67
2023/09/06 08:12:05;;;;;;;4.82;2.35;;;;;;;27.23;46.85;101733.00;4969052;28;20093;-67
2023/09/06 08:14:31;;;;;;;3.90;2.00;;;;;;;27.30;48.49;101728.34;4955182;28;20041;-67
2023/09/06 08:16:56;;;;;;;4.68;2.42;;;;;;;27.28;47.72;101723.25;4970760;28;20038;-67
2023/09/06 08:19:22;;;;;;;7.32;2.35;;;;;;;27.11;47.66;101730.44;4972095;28;20046;-67
2023/09/06 08:21:48;;;;;;;7.20;2.40;;;;;;;27.15;47.67;101731.56;4969112;28;20046;-67
2023/09/06 08:24:13;;;;;;;6.05;2.38;;;;;;;27.27;47.83;101721.63;4969604;28;20101;-67
2023/09/06 08:26:39;;;;;;;8.32;2.40;;;;;;;26.89;47.93;101731.19;4967415;28;20046;-67
2023/09/06 08:29:05;;;;;;;4.88;1.92;;;;;;;27.26;48.88;101719.25;4974313;28;20080;-69
2023/09/06 08:31:32;;;;;;;7.22;2.80;;;;;;;27.55;47.85;101728.66;4967354;28;20031;-67
2023/09/06 08:33:58;;;;;;;5.55;2.45;;;;;;;27.55;47.67;101722.53;4969778;28;20074;-66
2023/09/06 08:36:23;;;;;;;8.82;2.60;;;;;;;27.88;46.64;101726.13;4970565;28;20118;-66
2023/09/06 08:38:48;;;;;;;11.60;2.28;;;;;;;28.27;46.83;101725.97;4970675;28;20033;-67
2023/09/06 08:41:14;;;;;;;5.97;2.72;;;;;;;28.25;45.60;101722.75;4963123;28;20533;-67
2023/09/06 08:43:43;;;;;;;5.03;2.60;;;;;;;28.04;46.38;101727.91;4960428;28;20042;-66
2023/09/06 08:46:17;;;;;;;7.65;2.30;;;;;;;28.12;46.79;101730.13;4951333;28;20065;-67
2023/09/06 08:48:44;;;;;;;4.22;2.53;;;;;;;28.56;46.43;101726.53;4952234;28;20042;-66
2023/09/06 08:51:11;;;;;;;6.45;2.45;;;;;;;28.44;45.99;101728.53;4965142;28;20133;-67
2023/09/06 08:53:42;;;;;;;5.95;2.53;;;;;;;28.58;45.75;101721.75;4965481;28;20034;-66
2023/09/06 08:56:08;;;;;;;4.72;2.28;;;;;;;28.91;46.18;101723.34;4965511;28;20114;-66
2023/09/06 08:58:34;;;;;;;6.45;2.83;;;;;;;29.36;45.33;101723.06;4969483;28;20160;-66
2023/09/06 09:01:00;;;;;;;8.88;2.67;;;;;;;29.46;45.17;101720.41;4962270;28;20069;-67
2023/09/06 09:03:25;;;;;;;6.88;2.60;;;;;;;29.58;44.21;101722.88;4960236;28;20129;-67
2023/09/06 09:05:57;;;;;;;6.38;2.35;;;;;;;29.39;43.81;101725.22;4955212;28;20046;-67
2023/09/06 09:08:23;;;;;;;4.15;2.40;;;;;;;29.27;44.31;101725.41;4969411;28;20392;-66
2023/09/06 09:11:07;;;;;;;4.07;2.28;;;;;;;29.41;43.92;101729.22;4961183;28;20042;-67
2023/09/06 09:13:32;;;;;;;3.72;2.35;;;;;;;29.56;43.49;101727.69;4966102;28;20034;-67
2023/09/06 09:15:58;;;;;;;6.65;2.53;;;;;;;29.42;44.12;101725.50;4963360;28;20039;-67
2023/09/06 09:18:23;;;;;;;4.28;2.42;;;;;;;29.40;43.88;101732.94;4968889;28;20026;-67
2023/09/06 09:20:48;;;;;;;6.57;2.55;;;;;;;29.20;43.53;101735.53;4967160;28;20053;-67
2023/09/06 09:23:14;;;;;;;7.53;2.97;;;;;;;29.31;44.26;101726.53;4967282;28;20131;-67
2023/09/06 09:25:49;;;;;;;8.23;2.70;;;;;;;29.22;43.82;101731.53;4968886;28;20562;-67
2023/09/06 09:28:16;;;;;;;3.40;2.17;;;;;;;29.48;43.42;101723.66;4963997;28;20058;-66
2023/09/06 09:30:41;;;;;;;4.65;2.58;;;;;;;29.14;43.00;101724.03;4963643;28;20471;-67
2023/09/06 09:33:07;;;;;;;6.20;2.30;;;;;;;29.01;43.29;101727.94;4964840;28;20027;-66
2023/09/06 09:35:34;;;;;;;4.97;2.53;;;;;;;29.06;43.69;101733.28;4964755;28;20394;-69
2023/09/06 09:38:01;;;;;;;4.47;2.60;;;;;;;29.04;43.07;101730.06;4965674;28;20251;-67
2023/09/06 09:40:32;;;;;;;8.90;2.97;;;;;;;28.98;43.75;101722.28;4967465;28;20041;-67
2023/09/06 09:43:00;;;;;;;6.20;3.10;;;;;;;28.89;42.96;101720.09;4963274;28;20069;-67
2023/09/06 09:45:28;;;;;;;8.07;2.90;;;;;;;28.62;43.95;101725.50;4967847;28;20054;-67
2023/09/06 09:47:55;;;;;;;6.78;3.13;;;;;;;28.80;44.21;101716.31;4963803;28;20714;-67
2023/09/06 09:50:29;;;;;;;5.40;2.72;;;;;;;29.10;44.17;101714.88;4964908;28;20027;-68
2023/09/06 09:52:56;;;;;;;4.30;3.03;;;;;;;28.80;42.31;101719.00;4961545;28;20065;-67
2023/09/06 09:55:31;;;;;;;5.78;3.03;;;;;;;28.75;41.86;101708.28;4964942;28;20055;-67
2023/09/06 09:57:58;;;;;;;8.05;3.88;;;;;;;28.75;41.12;101718.16;4965978;28;20038;-67
2023/09/06 10:00:28;;;;;;;4.03;2.40;;;;;;;28.73;42.45;101716.53;4967865;28;20157;-68
2023/09/06 10:03:00;;;;;;;4.88;2.80;;;;;;;28.89;41.62;101714.75;4964597;28;20440;-67
2023/09/06 10:05:29;;;;;;;6.78;3.17;;;;;;;28.84;42.03;101705.91;4961389;28;20053;-66
2023/09/06 10:07:56;;;;;;;3.80;2.95;;;;;;;29.15;42.34;101714.94;4965744;28;20046;-67
2023/09/06 10:10:24;;;;;;;4.95;3.10;;;;;;;28.96;42.13;101705.75;4965389;28;20034;-67
2023/09/06 10:12:52;;;;;;;4.28;2.72;;;;;;;29.07;41.48;101702.84;4966897;28;20057;-67
2023/09/06 10:15:24;;;;;;;3.33;2.45;;;;;;;29.19;42.86;101700.00;4950999;28;20094;-67
2023/09/06 10:17:55;;;;;;;6.23;2.83;;;;;;;29.16;41.98;101700.53;4964113;28;20030;-67
2023/09/06 10:20:26;;;;;;;9.00;3.13;;;;;;;29.10;40.76;101694.34;4966487;28;20039;-67
2023/09/06 10:22:56;;;;;;;7.13;3.15;;;;;;;29.24;41.53;101700.03;4966921;28;20452;-67
2023/09/06 10:25:22;;;;;;;5.75;2.85;;;;;;;29.27;40.92;101694.19;4967990;28;20155;-67
2023/09/06 10:27:50;;;;;;;15.52;3.20;;;;;;;29.47;40.92;101698.78;4966617;28;20048;-67
2023/09/06 10:30:20;;;;;;;5.80;3.30;;;;;;;29.76;41.29;101695.72;4972675;28;20512;-67
2023/09/06 10:32:47;;;;;;;7.40;2.97;;;;;;;29.61;39.13;101703.63;4969019;28;20030;-66
2023/09/06 10:35:25;;;;;;;5.38;3.20;;;;;;;29.42;39.18;101700.63;4964330;28;20389;-67
2023/09/06 10:38:04;;;;;;;7.32;3.17;;;;;;;29.57;39.32;101697.22;4964373;28;20039;-67
2023/09/06 10:40:51;;;;;;;5.38;3.25;;;;;;;29.77;40.05;101691.19;4973078;28;20440;-66
2023/09/06 10:43:24;;;;;;;5.45;2.97;;;;;;;29.75;38.95;101694.09;4967949;28;20355;-67
2023/09/06 10:45:57;;;;;;;6.18;2.90;;;;;;;29.69;36.41;101693.25;4969017;28;20042;-67
2023/09/06 10:48:23;;;;;;;;;;;;;;;29.71;37.46;101698.34;4973268;28;20508;-67
2023/09/06 10:51:08;;;;;;;11.30;4.25;;;;;;;29.67;38.27;101703.41;4966549;28;19929;-67
2023/09/06 10:53:36;;;;;;;5.97;2.88;;;;;;;29.89;39.42;101699.72;4968196;28;20039;-67
2023/09/06 10:56:03;;;;;;;5.47;2.72;;;;;;;29.95;37.34;101701.38;4967242;28;20057;-67
2023/09/06 10:58:30;;;;;;;4.35;2.53;;;;;;;29.86;36.43;101700.28;4967909;28;20119;-68
2023/09/06 11:01:20;;;;;;;6.78;3.13;;;;;;;29.85;36.17;101693.31;4966273;28;20072;-67
2023/09/06 11:03:52;;;;;;;5.90;3.58;;;;;;;29.82;37.69;101691.16;4967798;28;20121;-67
2023/09/06 11:06:19;;;;;;;4.90;2.73;;;;;;;29.69;37.05;101698.59;4969194;28;20045;-67
2023/09/06 11:08:45;;;;;;;5.55;2.97;;;;;;;29.68;36.50;101683.63;4964536;28;20505;-67
2023/09/06 11:11:14;;;;;;;4.00;2.55;;;;;;;29.77;35.65;101681.28;4964177;28;20133;-68
2023/09/06 11:13:42;;;;;;;4.80;2.95;;;;;;;30.03;35.71;101673.31;4964485;28;20430;-68
2023/09/06 11:16:15;;;;;;;4.15;2.80;;;;;;;29.96;35.08;101667.41;4969990;28;20042;-68
2023/09/06 11:18:46;;;;;;;9.73;3.03;;;;;;;29.98;36.44;101682.13;4973260;28;20550;-67
2023/09/06 11:21:19;;;;;;;5.43;3.17;;;;;;;30.01;36.41;101676.25;4949365;28;20057;-68
2023/09/06 11:23:45;;;;;;;;;;;;;;;30.07;35.59;101672.50;4969901;28;20441;-67
2023/09/06 11:26:10;;;;;;;5.40;3.05;;;;;;;30.14;36.61;101674.09;4963915;28;20450;-67
2023/09/06 11:28:38;;;;;;;5.57;2.72;;;;;;;30.34;35.83;101671.47;4965716;28;20042;-68